sensor_id;sensor_type;location;lat;lon;timestamp;P1;durP1;ratioP1;P2;durP2;ratioP2
52724;SDS011;38621;52.830;6.914;2022-11-12T00:00:40;7.65;;;5.28;;
52724;SDS011;38621;52.830;6.914;2022-11-12T00:03:05;7.82;;;5.43;;
52724;SDS011;38621;52.830;6.914;2022-11-12T00:05:32;13.60;;;6.78;;
52724;SDS011;38621;52.830;6.914;2022-11-12T00:07:58;10.00;;;6.70;;
52724;SDS011;38621;52.830;6.914;2022-11-12T00:10:24;9.18;;;6.32;;
52724;SDS011;38621;52.830;6.914;2022-11-12T00:12:50;8.50;;;6.35;;
52724;SDS011;38621;52.830;6.914;2022-11-12T00:15:16;12.68;;;6.40;;
52724;SDS011;38621;52.830;6.914;2022-11-12T00:17:42;8.32;;;5.70;;
52724;SDS011;38621;52.830;6.914;2022-11-12T00:20:08;6.78;;;5.53;;
52724;SDS011;38621;52.830;6.914;2022-11-12T00:22:34;8.80;;;5.93;;
52724;SDS011;38621;52.830;6.914;2022-11-12T00:25:00;8.48;;;5.93;;
52724;SDS011;38621;52.830;6.914;2022-11-12T00:27:26;7.28;;;5.38;;
52724;SDS011;38621;52.830;6.914;2022-11-12T00:29:51;8.52;;;5.15;;
52724;SDS011;38621;52.830;6.914;2022-11-12T00:32:17;8.60;;;5.28;;
52724;SDS011;38621;52.830;6.914;2022-11-12T00:34:44;9.68;;;5.47;;
52724;SDS011;38621;52.830;6.914;2022-11-12T00:37:10;9.70;;;5.18;;
52724;SDS011;38621;52.830;6.914;2022-11-12T00:39:35;8.57;;;5.40;;
52724;SDS011;38621;52.830;6.914;2022-11-12T00:42:01;7.25;;;4.97;;
52724;SDS011;38621;52.830;6.914;2022-11-12T00:44:27;7.80;;;5.22;;
52724;SDS011;38621;52.830;6.914;2022-11-12T00:46:53;8.57;;;5.45;;
52724;SDS011;38621;52.830;6.914;2022-11-12T00:49:20;8.82;;;5.35;;
52724;SDS011;38621;52.830;6.914;2022-11-12T00:51:45;7.88;;;5.35;;
52724;SDS011;38621;52.830;6.914;2022-11-12T00:54:11;8.70;;;5.45;;
52724;SDS011;38621;52.830;6.914;2022-11-12T00:56:37;6.97;;;4.88;;
52724;SDS011;38621;52.830;6.914;2022-11-12T00:59:03;10.27;;;5.75;;
52724;SDS011;38621;52.830;6.914;2022-11-12T01:01:28;8.93;;;5.20;;
52724;SDS011;38621;52.830;6.914;2022-11-12T01:03:55;7.55;;;4.95;;
52724;SDS011;38621;52.830;6.914;2022-11-12T01:06:22;7.13;;;5.13;;
52724;SDS011;38621;52.830;6.914;2022-11-12T01:08:49;9.05;;;5.03;;
52724;SDS011;38621;52.830;6.914;2022-11-12T01:11:17;7.53;;;5.30;;
52724;SDS011;38621;52.830;6.914;2022-11-12T01:13:45;8.85;;;5.30;;
52724;SDS011;38621;52.830;6.914;2022-11-12T01:16:16;7.50;;;5.38;;
52724;SDS011;38621;52.830;6.914;2022-11-12T01:18:46;8.82;;;5.82;;
52724;SDS011;38621;52.830;6.914;2022-11-12T01:21:15;7.22;;;4.78;;
52724;SDS011;38621;52.830;6.914;2022-11-12T01:23:41;7.03;;;4.78;;
52724;SDS011;38621;52.830;6.914;2022-11-12T01:26:11;7.90;;;4.15;;
52724;SDS011;38621;52.830;6.914;2022-11-12T01:28:39;7.00;;;4.47;;
52724;SDS011;38621;52.830;6.914;2022-11-12T01:31:22;8.85;;;5.55;;
52724;SDS011;38621;52.830;6.914;2022-11-12T01:33:54;7.55;;;5.00;;
52724;SDS011;38621;52.830;6.914;2022-11-12T01:36:22;6.57;;;4.47;;
52724;SDS011;38621;52.830;6.914;2022-11-12T01:38:48;8.80;;;4.93;;
52724;SDS011;38621;52.830;6.914;2022-11-12T01:41:19;8.90;;;4.47;;
52724;SDS011;38621;52.830;6.914;2022-11-12T01:43:46;7.85;;;4.65;;
52724;SDS011;38621;52.830;6.914;2022-11-12T01:46:20;8.20;;;4.47;;
52724;SDS011;38621;52.830;6.914;2022-11-12T01:49:00;7.82;;;4.57;;
52724;SDS011;38621;52.830;6.914;2022-11-12T01:51:33;6.90;;;4.32;;
52724;SDS011;38621;52.830;6.914;2022-11-12T01:54:04;8.25;;;4.38;;
52724;SDS011;38621;52.830;6.914;2022-11-12T01:56:33;9.23;;;4.28;;
52724;SDS011;38621;52.830;6.914;2022-11-12T01:59:01;7.15;;;4.45;;
52724;SDS011;38621;52.830;6.914;2022-11-12T02:01:35;7.20;;;4.75;;
52724;SDS011;38621;52.830;6.914;2022-11-12T02:04:02;7.38;;;4.45;;
52724;SDS011;38621;52.830;6.914;2022-11-12T02:06:28;6.28;;;4.38;;
52724;SDS011;38621;52.830;6.914;2022-11-12T02:08:55;7.70;;;4.90;;
52724;SDS011;38621;52.830;6.914;2022-11-12T02:11:22;7.40;;;5.18;;
52724;SDS011;38621;52.830;6.914;2022-11-12T02:13:48;7.60;;;5.07;;
52724;SDS011;38621;52.830;6.914;2022-11-12T02:16:29;8.00;;;5.00;;
52724;SDS011;38621;52.830;6.914;2022-11-12T02:19:03;6.90;;;4.90;;
52724;SDS011;38621;52.830;6.914;2022-11-12T02:21:31;7.43;;;4.43;;
52724;SDS011;38621;52.830;6.914;2022-11-12T02:23:58;8.23;;;4.85;;
52724;SDS011;38621;52.830;6.914;2022-11-12T02:26:25;5.68;;;4.25;;
52724;SDS011;38621;52.830;6.914;2022-11-12T02:28:55;6.28;;;4.70;;
52724;SDS011;38621;52.830;6.914;2022-11-12T02:31:21;6.32;;;4.38;;
52724;SDS011;38621;52.830;6.914;2022-11-12T02:33:47;8.75;;;5.18;;
52724;SDS011;38621;52.830;6.914;2022-11-12T02:36:12;6.72;;;4.53;;
52724;SDS011;38621;52.830;6.914;2022-11-12T02:38:38;7.72;;;4.53;;
52724;SDS011;38621;52.830;6.914;2022-11-12T02:41:04;6.93;;;4.65;;
52724;SDS011;38621;52.830;6.914;2022-11-12T02:43:29;6.63;;;4.63;;
52724;SDS011;38621;52.830;6.914;2022-11-12T02:45:55;6.60;;;4.00;;
52724;SDS011;38621;52.830;6.914;2022-11-12T02:48:21;6.35;;;4.50;;
52724;SDS011;38621;52.830;6.914;2022-11-12T02:50:46;7.28;;;4.13;;
52724;SDS011;38621;52.830;6.914;2022-11-12T02:53:12;6.97;;;4.90;;
52724;SDS011;38621;52.830;6.914;2022-11-12T02:55:38;5.75;;;3.83;;
52724;SDS011;38621;52.830;6.914;2022-11-12T02:58:04;7.88;;;4.32;;
52724;SDS011;38621;52.830;6.914;2022-11-12T03:00:29;6.20;;;4.38;;
52724;SDS011;38621;52.830;6.914;2022-11-12T03:02:55;5.40;;;3.47;;
52724;SDS011;38621;52.830;6.914;2022-11-12T03:05:24;5.45;;;3.50;;
52724;SDS011;38621;52.830;6.914;2022-11-12T03:07:54;6.07;;;3.97;;
52724;SDS011;38621;52.830;6.914;2022-11-12T03:10:21;6.55;;;3.70;;
52724;SDS011;38621;52.830;6.914;2022-11-12T03:12:48;6.85;;;4.13;;
52724;SDS011;38621;52.830;6.914;2022-11-12T03:15:13;5.82;;;3.78;;
52724;SDS011;38621;52.830;6.914;2022-11-12T03:17:41;5.28;;;3.40;;
52724;SDS011;38621;52.830;6.914;2022-11-12T03:20:08;6.15;;;4.68;;
52724;SDS011;38621;52.830;6.914;2022-11-12T03:22:34;6.40;;;3.95;;
52724;SDS011;38621;52.830;6.914;2022-11-12T03:25:00;6.35;;;4.18;;
52724;SDS011;38621;52.830;6.914;2022-11-12T03:27:26;6.80;;;4.82;;
52724;SDS011;38621;52.830;6.914;2022-11-12T03:29:51;6.25;;;3.67;;
52724;SDS011;38621;52.830;6.914;2022-11-12T03:32:17;4.55;;;2.90;;
52724;SDS011;38621;52.830;6.914;2022-11-12T03:34:42;7.22;;;3.83;;
52724;SDS011;38621;52.830;6.914;2022-11-12T03:37:08;9.05;;;3.72;;
52724;SDS011;38621;52.830;6.914;2022-11-12T03:39:34;5.25;;;3.03;;
52724;SDS011;38621;52.830;6.914;2022-11-12T03:42:00;5.05;;;3.25;;
52724;SDS011;38621;52.830;6.914;2022-11-12T03:44:26;12.05;;;10.80;;
52724;SDS011;38621;52.830;6.914;2022-11-12T03:46:52;5.25;;;4.07;;
52724;SDS011;38621;52.830;6.914;2022-11-12T03:49:18;7.43;;;6.00;;
52724;SDS011;38621;52.830;6.914;2022-11-12T03:51:43;5.35;;;3.90;;
52724;SDS011;38621;52.830;6.914;2022-11-12T03:54:09;4.55;;;3.40;;
52724;SDS011;38621;52.830;6.914;2022-11-12T03:56:34;5.95;;;3.47;;
52724;SDS011;38621;52.830;6.914;2022-11-12T03:59:00;4.47;;;3.00;;
52724;SDS011;38621;52.830;6.914;2022-11-12T04:01:26;5.70;;;2.83;;
52724;SDS011;38621;52.830;6.914;2022-11-12T04:03:51;4.38;;;2.70;;
52724;SDS011;38621;52.830;6.914;2022-11-12T04:06:17;4.45;;;2.63;;
52724;SDS011;38621;52.830;6.914;2022-11-12T04:09:01;5.18;;;2.95;;
52724;SDS011;38621;52.830;6.914;2022-11-12T04:11:27;3.83;;;2.75;;
52724;SDS011;38621;52.830;6.914;2022-11-12T04:13:53;3.47;;;2.42;;
52724;SDS011;38621;52.830;6.914;2022-11-12T04:16:19;4.03;;;2.65;;
52724;SDS011;38621;52.830;6.914;2022-11-12T04:19:05;3.40;;;2.45;;
52724;SDS011;38621;52.830;6.914;2022-11-12T04:21:51;3.78;;;2.65;;
52724;SDS011;38621;52.830;6.914;2022-11-12T04:24:23;3.05;;;2.30;;
52724;SDS011;38621;52.830;6.914;2022-11-12T04:27:13;5.65;;;2.50;;
52724;SDS011;38621;52.830;6.914;2022-11-12T04:29:44;4.30;;;2.65;;
52724;SDS011;38621;52.830;6.914;2022-11-12T04:32:29;3.75;;;2.72;;
52724;SDS011;38621;52.830;6.914;2022-11-12T04:34:55;3.55;;;2.78;;
52724;SDS011;38621;52.830;6.914;2022-11-12T04:37:22;3.80;;;2.30;;
52724;SDS011;38621;52.830;6.914;2022-11-12T04:39:50;4.65;;;2.90;;
52724;SDS011;38621;52.830;6.914;2022-11-12T04:42:16;9.23;;;2.92;;
52724;SDS011;38621;52.830;6.914;2022-11-12T04:45:14;5.00;;;2.90;;
52724;SDS011;38621;52.830;6.914;2022-11-12T04:47:40;6.20;;;2.83;;
52724;SDS011;38621;52.830;6.914;2022-11-12T04:50:16;4.63;;;2.47;;
52724;SDS011;38621;52.830;6.914;2022-11-12T04:52:42;3.30;;;2.15;;
52724;SDS011;38621;52.830;6.914;2022-11-12T04:55:08;3.50;;;2.53;;
52724;SDS011;38621;52.830;6.914;2022-11-12T04:57:35;3.45;;;2.28;;
52724;SDS011;38621;52.830;6.914;2022-11-12T05:00:02;3.88;;;2.45;;
52724;SDS011;38621;52.830;6.914;2022-11-12T05:02:28;3.42;;;2.30;;
52724;SDS011;38621;52.830;6.914;2022-11-12T05:04:54;3.28;;;2.05;;
52724;SDS011;38621;52.830;6.914;2022-11-12T05:07:20;3.65;;;1.98;;
52724;SDS011;38621;52.830;6.914;2022-11-12T05:09:46;5.00;;;2.70;;
52724;SDS011;38621;52.830;6.914;2022-11-12T05:12:12;5.03;;;2.83;;
52724;SDS011;38621;52.830;6.914;2022-11-12T05:14:37;11.93;;;2.75;;
52724;SDS011;38621;52.830;6.914;2022-11-12T05:17:03;4.50;;;2.80;;
52724;SDS011;38621;52.830;6.914;2022-11-12T05:19:29;4.40;;;3.05;;
52724;SDS011;38621;52.830;6.914;2022-11-12T05:21:55;5.30;;;3.30;;
52724;SDS011;38621;52.830;6.914;2022-11-12T05:24:31;4.13;;;3.17;;
52724;SDS011;38621;52.830;6.914;2022-11-12T05:26:57;5.72;;;3.50;;
52724;SDS011;38621;52.830;6.914;2022-11-12T05:29:23;3.72;;;2.63;;
52724;SDS011;38621;52.830;6.914;2022-11-12T05:31:49;8.50;;;3.22;;
52724;SDS011;38621;52.830;6.914;2022-11-12T05:34:14;6.32;;;2.78;;
52724;SDS011;38621;52.830;6.914;2022-11-12T05:36:40;3.80;;;2.70;;
52724;SDS011;38621;52.830;6.914;2022-11-12T05:39:06;4.15;;;2.60;;
52724;SDS011;38621;52.830;6.914;2022-11-12T05:41:31;4.15;;;2.63;;
52724;SDS011;38621;52.830;6.914;2022-11-12T05:43:57;4.82;;;2.72;;
52724;SDS011;38621;52.830;6.914;2022-11-12T05:46:23;4.45;;;2.70;;
52724;SDS011;38621;52.830;6.914;2022-11-12T05:48:48;4.65;;;2.25;;
52724;SDS011;38621;52.830;6.914;2022-11-12T05:51:14;3.22;;;2.20;;
52724;SDS011;38621;52.830;6.914;2022-11-12T05:53:40;3.63;;;2.13;;
52724;SDS011;38621;52.830;6.914;2022-11-12T05:56:06;3.95;;;2.50;;
52724;SDS011;38621;52.830;6.914;2022-11-12T05:58:34;3.65;;;2.30;;
52724;SDS011;38621;52.830;6.914;2022-11-12T06:01:00;7.68;;;3.10;;
52724;SDS011;38621;52.830;6.914;2022-11-12T06:03:26;4.00;;;2.90;;
52724;SDS011;38621;52.830;6.914;2022-11-12T06:05:52;3.90;;;2.90;;
52724;SDS011;38621;52.830;6.914;2022-11-12T06:08:18;8.27;;;3.47;;
52724;SDS011;38621;52.830;6.914;2022-11-12T06:10:47;5.05;;;2.53;;
52724;SDS011;38621;52.830;6.914;2022-11-12T06:13:14;4.30;;;2.72;;
52724;SDS011;38621;52.830;6.914;2022-11-12T06:15:40;3.97;;;2.83;;
52724;SDS011;38621;52.830;6.914;2022-11-12T06:18:06;4.63;;;2.47;;
52724;SDS011;38621;52.830;6.914;2022-11-12T06:20:32;6.93;;;2.90;;
52724;SDS011;38621;52.830;6.914;2022-11-12T06:22:58;7.40;;;2.53;;
52724;SDS011;38621;52.830;6.914;2022-11-12T06:25:24;9.82;;;3.60;;
52724;SDS011;38621;52.830;6.914;2022-11-12T06:27:50;4.38;;;2.72;;
52724;SDS011;38621;52.830;6.914;2022-11-12T06:30:16;10.80;;;3.10;;
52724;SDS011;38621;52.830;6.914;2022-11-12T06:32:44;15.52;;;3.47;;
52724;SDS011;38621;52.830;6.914;2022-11-12T06:35:11;9.65;;;3.10;;
52724;SDS011;38621;52.830;6.914;2022-11-12T06:37:37;16.30;;;3.40;;
52724;SDS011;38621;52.830;6.914;2022-11-12T06:40:02;12.70;;;3.33;;
52724;SDS011;38621;52.830;6.914;2022-11-12T06:42:28;4.65;;;3.05;;
52724;SDS011;38621;52.830;6.914;2022-11-12T06:44:54;6.25;;;2.38;;
52724;SDS011;38621;52.830;6.914;2022-11-12T06:47:19;3.88;;;2.40;;
52724;SDS011;38621;52.830;6.914;2022-11-12T06:49:45;4.03;;;2.90;;
52724;SDS011;38621;52.830;6.914;2022-11-12T06:52:11;5.45;;;2.88;;
52724;SDS011;38621;52.830;6.914;2022-11-12T06:54:36;11.98;;;10.75;;
52724;SDS011;38621;52.830;6.914;2022-11-12T06:57:02;7.03;;;3.35;;
52724;SDS011;38621;52.830;6.914;2022-11-12T06:59:28;6.05;;;2.70;;
52724;SDS011;38621;52.830;6.914;2022-11-12T07:01:53;11.90;;;3.78;;
52724;SDS011;38621;52.830;6.914;2022-11-12T07:04:19;4.13;;;2.65;;
52724;SDS011;38621;52.830;6.914;2022-11-12T07:06:44;4.10;;;2.95;;
52724;SDS011;38621;52.830;6.914;2022-11-12T07:09:10;3.15;;;2.38;;
52724;SDS011;38621;52.830;6.914;2022-11-12T07:11:36;3.20;;;2.40;;
52724;SDS011;38621;52.830;6.914;2022-11-12T07:14:04;3.45;;;2.42;;
52724;SDS011;38621;52.830;6.914;2022-11-12T07:16:30;3.83;;;2.70;;
52724;SDS011;38621;52.830;6.914;2022-11-12T07:18:56;4.18;;;3.20;;
52724;SDS011;38621;52.830;6.914;2022-11-12T07:21:22;4.30;;;2.75;;
52724;SDS011;38621;52.830;6.914;2022-11-12T07:23:48;4.72;;;3.00;;
52724;SDS011;38621;52.830;6.914;2022-11-12T07:26:15;4.10;;;2.78;;
52724;SDS011;38621;52.830;6.914;2022-11-12T07:28:45;4.35;;;2.88;;
52724;SDS011;38621;52.830;6.914;2022-11-12T07:31:13;4.50;;;2.97;;
52724;SDS011;38621;52.830;6.914;2022-11-12T07:33:40;4.38;;;2.85;;
52724;SDS011;38621;52.830;6.914;2022-11-12T07:36:06;3.92;;;3.25;;
52724;SDS011;38621;52.830;6.914;2022-11-12T07:38:35;3.90;;;2.85;;
52724;SDS011;38621;52.830;6.914;2022-11-12T07:41:11;5.57;;;3.17;;
52724;SDS011;38621;52.830;6.914;2022-11-12T07:43:40;4.80;;;3.00;;
52724;SDS011;38621;52.830;6.914;2022-11-12T07:46:09;4.65;;;3.35;;
52724;SDS011;38621;52.830;6.914;2022-11-12T07:48:40;4.65;;;3.03;;
52724;SDS011;38621;52.830;6.914;2022-11-12T07:53:43;4.38;;;2.97;;
52724;SDS011;38621;52.830;6.914;2022-11-12T07:56:10;4.50;;;2.75;;
52724;SDS011;38621;52.830;6.914;2022-11-12T07:58:38;4.25;;;2.88;;
52724;SDS011;38621;52.830;6.914;2022-11-12T08:01:11;6.05;;;3.45;;
52724;SDS011;38621;52.830;6.914;2022-11-12T08:03:47;5.38;;;3.40;;
52724;SDS011;38621;52.830;6.914;2022-11-12T08:06:13;5.20;;;3.72;;
52724;SDS011;38621;52.830;6.914;2022-11-12T08:08:38;4.20;;;2.80;;
52724;SDS011;38621;52.830;6.914;2022-11-12T08:11:04;3.65;;;2.50;;
52724;SDS011;38621;52.830;6.914;2022-11-12T08:13:30;4.70;;;2.60;;
52724;SDS011;38621;52.830;6.914;2022-11-12T08:15:56;6.32;;;3.88;;
52724;SDS011;38621;52.830;6.914;2022-11-12T08:18:23;6.05;;;5.03;;
52724;SDS011;38621;52.830;6.914;2022-11-12T08:20:49;4.03;;;3.30;;
52724;SDS011;38621;52.830;6.914;2022-11-12T08:23:14;4.25;;;3.10;;
52724;SDS011;38621;52.830;6.914;2022-11-12T08:25:40;6.35;;;3.80;;
52724;SDS011;38621;52.830;6.914;2022-11-12T08:28:06;4.07;;;3.03;;
52724;SDS011;38621;52.830;6.914;2022-11-12T08:30:31;5.75;;;3.55;;
52724;SDS011;38621;52.830;6.914;2022-11-12T08:33:02;5.65;;;3.85;;
52724;SDS011;38621;52.830;6.914;2022-11-12T08:35:29;4.72;;;3.70;;
52724;SDS011;38621;52.830;6.914;2022-11-12T08:37:57;5.93;;;3.97;;
52724;SDS011;38621;52.830;6.914;2022-11-12T08:40:28;5.13;;;3.42;;
52724;SDS011;38621;52.830;6.914;2022-11-12T08:42:55;5.78;;;4.05;;
52724;SDS011;38621;52.830;6.914;2022-11-12T08:45:25;6.00;;;4.10;;
52724;SDS011;38621;52.830;6.914;2022-11-12T08:47:52;6.13;;;4.20;;
52724;SDS011;38621;52.830;6.914;2022-11-12T08:50:22;4.85;;;3.70;;
52724;SDS011;38621;52.830;6.914;2022-11-12T08:52:48;5.85;;;4.30;;
52724;SDS011;38621;52.830;6.914;2022-11-12T08:55:14;5.43;;;3.80;;
52724;SDS011;38621;52.830;6.914;2022-11-12T08:57:40;7.82;;;3.88;;
52724;SDS011;38621;52.830;6.914;2022-11-12T09:00:07;6.05;;;3.60;;
52724;SDS011;38621;52.830;6.914;2022-11-12T09:02:34;6.55;;;4.30;;
52724;SDS011;38621;52.830;6.914;2022-11-12T09:05:00;6.53;;;4.30;;
52724;SDS011;38621;52.830;6.914;2022-11-12T09:07:25;6.75;;;4.60;;
52724;SDS011;38621;52.830;6.914;2022-11-12T09:09:52;7.22;;;4.60;;
52724;SDS011;38621;52.830;6.914;2022-11-12T09:12:18;7.68;;;5.10;;
52724;SDS011;38621;52.830;6.914;2022-11-12T09:14:44;6.95;;;5.57;;
52724;SDS011;38621;52.830;6.914;2022-11-12T09:17:10;5.65;;;4.43;;
52724;SDS011;38621;52.830;6.914;2022-11-12T09:19:36;9.05;;;5.78;;
52724;SDS011;38621;52.830;6.914;2022-11-12T09:22:02;6.80;;;4.90;;
52724;SDS011;38621;52.830;6.914;2022-11-12T09:24:28;7.78;;;5.50;;
52724;SDS011;38621;52.830;6.914;2022-11-12T09:26:54;6.45;;;5.05;;
52724;SDS011;38621;52.830;6.914;2022-11-12T09:29:20;6.97;;;5.00;;
52724;SDS011;38621;52.830;6.914;2022-11-12T09:31:45;8.15;;;5.53;;
52724;SDS011;38621;52.830;6.914;2022-11-12T09:34:11;6.70;;;5.13;;
52724;SDS011;38621;52.830;6.914;2022-11-12T09:36:38;8.23;;;5.80;;
52724;SDS011;38621;52.830;6.914;2022-11-12T09:39:04;7.63;;;5.10;;
52724;SDS011;38621;52.830;6.914;2022-11-12T09:41:36;7.97;;;5.53;;
52724;SDS011;38621;52.830;6.914;2022-11-12T09:44:05;7.35;;;5.15;;
52724;SDS011;38621;52.830;6.914;2022-11-12T09:51:47;5.95;;;4.50;;
52724;SDS011;38621;52.830;6.914;2022-11-12T09:57:14;6.57;;;4.32;;
52724;SDS011;38621;52.830;6.914;2022-11-12T09:59:41;5.22;;;4.53;;
52724;SDS011;38621;52.830;6.914;2022-11-12T10:05:23;5.55;;;4.32;;
52724;SDS011;38621;52.830;6.914;2022-11-12T10:24:48;6.10;;;4.82;;
52724;SDS011;38621;52.830;6.914;2022-11-12T10:27:17;6.78;;;4.97;;
52724;SDS011;38621;52.830;6.914;2022-11-12T10:32:24;7.55;;;4.93;;
52724;SDS011;38621;52.830;6.914;2022-11-12T10:34:50;6.75;;;5.20;;
52724;SDS011;38621;52.830;6.914;2022-11-12T10:37:20;6.65;;;4.97;;
52724;SDS011;38621;52.830;6.914;2022-11-12T10:39:51;6.70;;;4.75;;
52724;SDS011;38621;52.830;6.914;2022-11-12T10:42:18;6.18;;;4.90;;
52724;SDS011;38621;52.830;6.914;2022-11-12T10:44:45;6.15;;;5.20;;
52724;SDS011;38621;52.830;6.914;2022-11-12T10:49:40;6.45;;;5.00;;
52724;SDS011;38621;52.830;6.914;2022-11-12T10:52:16;7.03;;;5.28;;
52724;SDS011;38621;52.830;6.914;2022-11-12T10:54:45;8.82;;;4.93;;
52724;SDS011;38621;52.830;6.914;2022-11-12T10:57:22;7.35;;;5.43;;
52724;SDS011;38621;52.830;6.914;2022-11-12T11:00:05;6.35;;;4.80;;
52724;SDS011;38621;52.830;6.914;2022-11-12T11:02:33;7.88;;;5.30;;
52724;SDS011;38621;52.830;6.914;2022-11-12T11:04:59;7.07;;;5.38;;
52724;SDS011;38621;52.830;6.914;2022-11-12T11:07:25;7.22;;;5.47;;
52724;SDS011;38621;52.830;6.914;2022-11-12T11:09:51;8.82;;;5.20;;
52724;SDS011;38621;52.830;6.914;2022-11-12T11:15:07;8.15;;;5.57;;
52724;SDS011;38621;52.830;6.914;2022-11-12T11:17:41;7.25;;;5.00;;
52724;SDS011;38621;52.830;6.914;2022-11-12T11:23:19;7.47;;;5.50;;
52724;SDS011;38621;52.830;6.914;2022-11-12T11:25:49;7.18;;;5.25;;
52724;SDS011;38621;52.830;6.914;2022-11-12T11:31:06;9.05;;;5.30;;
52724;SDS011;38621;52.830;6.914;2022-11-12T11:34:18;7.57;;;5.30;;
52724;SDS011;38621;52.830;6.914;2022-11-12T11:45:26;7.32;;;5.72;;
52724;SDS011;38621;52.830;6.914;2022-11-12T11:48:00;7.35;;;5.38;;
52724;SDS011;38621;52.830;6.914;2022-11-12T11:50:54;7.97;;;5.57;;
52724;SDS011;38621;52.830;6.914;2022-11-12T11:56:35;8.95;;;5.78;;
52724;SDS011;38621;52.830;6.914;2022-11-12T12:12:49;6.93;;;4.65;;
52724;SDS011;38621;52.830;6.914;2022-11-12T12:26:17;6.03;;;4.57;;
52724;SDS011;38621;52.830;6.914;2022-11-12T12:34:00;5.53;;;4.40;;
52724;SDS011;38621;52.830;6.914;2022-11-12T12:36:38;5.65;;;4.18;;
52724;SDS011;38621;52.830;6.914;2022-11-12T12:39:12;5.82;;;4.55;;
52724;SDS011;38621;52.830;6.914;2022-11-12T12:42:16;6.00;;;4.40;;
52724;SDS011;38621;52.830;6.914;2022-11-12T12:44:40;6.50;;;4.28;;
52724;SDS011;38621;52.830;6.914;2022-11-12T12:47:36;6.28;;;4.50;;
52724;SDS011;38621;52.830;6.914;2022-11-12T12:50:06;5.60;;;4.35;;
52724;SDS011;38621;52.830;6.914;2022-11-12T12:55:36;6.22;;;4.22;;
52724;SDS011;38621;52.830;6.914;2022-11-12T13:00:48;7.10;;;4.20;;
52724;SDS011;38621;52.830;6.914;2022-11-12T13:04:02;5.88;;;3.78;;
52724;SDS011;38621;52.830;6.914;2022-11-12T13:08:53;6.82;;;4.35;;
52724;SDS011;38621;52.830;6.914;2022-11-12T13:48:37;5.57;;;4.20;;
52724;SDS011;38621;52.830;6.914;2022-11-12T13:52:05;7.22;;;4.85;;
52724;SDS011;38621;52.830;6.914;2022-11-12T13:54:29;7.15;;;5.03;;
52724;SDS011;38621;52.830;6.914;2022-11-12T14:02:44;6.95;;;4.78;;
52724;SDS011;38621;52.830;6.914;2022-11-12T14:05:16;5.68;;;4.20;;
52724;SDS011;38621;52.830;6.914;2022-11-12T14:17:06;5.63;;;4.25;;
52724;SDS011;38621;52.830;6.914;2022-11-12T14:19:22;7.20;;;4.60;;
52724;SDS011;38621;52.830;6.914;2022-11-12T14:24:40;6.47;;;4.70;;
52724;SDS011;38621;52.830;6.914;2022-11-12T14:27:22;6.03;;;4.70;;
52724;SDS011;38621;52.830;6.914;2022-11-12T14:32:43;11.10;;;5.03;;
52724;SDS011;38621;52.830;6.914;2022-11-12T14:37:58;5.82;;;4.45;;
52724;SDS011;38621;52.830;6.914;2022-11-12T14:40:31;6.53;;;4.50;;
52724;SDS011;38621;52.830;6.914;2022-11-12T14:42:59;7.85;;;4.43;;
52724;SDS011;38621;52.830;6.914;2022-11-12T14:45:25;7.57;;;5.32;;
52724;SDS011;38621;52.830;6.914;2022-11-12T14:47:51;5.97;;;4.93;;
52724;SDS011;38621;52.830;6.914;2022-11-12T14:50:30;6.57;;;4.47;;
52724;SDS011;38621;52.830;6.914;2022-11-12T14:53:01;7.53;;;4.90;;
52724;SDS011;38621;52.830;6.914;2022-11-12T14:55:36;6.05;;;4.30;;
52724;SDS011;38621;52.830;6.914;2022-11-12T14:58:06;6.22;;;4.82;;
52724;SDS011;38621;52.830;6.914;2022-11-12T15:00:41;5.88;;;4.30;;
52724;SDS011;38621;52.830;6.914;2022-11-12T15:03:13;7.45;;;4.78;;
52724;SDS011;38621;52.830;6.914;2022-11-12T15:08:27;7.47;;;4.15;;
52724;SDS011;38621;52.830;6.914;2022-11-12T15:13:45;7.15;;;4.82;;
52724;SDS011;38621;52.830;6.914;2022-11-12T15:16:16;7.40;;;5.07;;
52724;SDS011;38621;52.830;6.914;2022-11-12T15:18:55;7.28;;;4.55;;
52724;SDS011;38621;52.830;6.914;2022-11-12T15:21:32;6.53;;;4.78;;
52724;SDS011;38621;52.830;6.914;2022-11-12T15:31:45;5.75;;;4.18;;
52724;SDS011;38621;52.830;6.914;2022-11-12T15:37:05;7.78;;;4.40;;
52724;SDS011;38621;52.830;6.914;2022-11-12T15:39:46;7.25;;;4.63;;
52724;SDS011;38621;52.830;6.914;2022-11-12T15:42:15;5.40;;;4.13;;
52724;SDS011;38621;52.830;6.914;2022-11-12T15:44:47;8.07;;;4.90;;
52724;SDS011;38621;52.830;6.914;2022-11-12T15:47:20;7.50;;;4.72;;
52724;SDS011;38621;52.830;6.914;2022-11-12T15:49:47;7.07;;;4.90;;
52724;SDS011;38621;52.830;6.914;2022-11-12T15:52:16;6.63;;;4.70;;
52724;SDS011;38621;52.830;6.914;2022-11-12T15:54:42;7.18;;;4.80;;
52724;SDS011;38621;52.830;6.914;2022-11-12T15:57:10;6.60;;;4.80;;
52724;SDS011;38621;52.830;6.914;2022-11-12T15:59:41;6.85;;;4.97;;
52724;SDS011;38621;52.830;6.914;2022-11-12T16:02:09;6.82;;;5.38;;
52724;SDS011;38621;52.830;6.914;2022-11-12T16:04:36;9.27;;;5.30;;
52724;SDS011;38621;52.830;6.914;2022-11-12T16:07:02;6.10;;;4.80;;
52724;SDS011;38621;52.830;6.914;2022-11-12T16:09:31;6.38;;;5.18;;
52724;SDS011;38621;52.830;6.914;2022-11-12T16:11:58;6.50;;;5.10;;
52724;SDS011;38621;52.830;6.914;2022-11-12T16:14:24;6.85;;;5.13;;
52724;SDS011;38621;52.830;6.914;2022-11-12T16:16:51;7.75;;;4.95;;
52724;SDS011;38621;52.830;6.914;2022-11-12T16:19:17;6.82;;;4.68;;
52724;SDS011;38621;52.830;6.914;2022-11-12T16:21:43;6.40;;;4.50;;
52724;SDS011;38621;52.830;6.914;2022-11-12T16:24:09;7.57;;;5.32;;
52724;SDS011;38621;52.830;6.914;2022-11-12T16:26:35;6.65;;;4.95;;
52724;SDS011;38621;52.830;6.914;2022-11-12T16:29:01;6.88;;;5.03;;
52724;SDS011;38621;52.830;6.914;2022-11-12T16:31:28;5.95;;;4.88;;
52724;SDS011;38621;52.830;6.914;2022-11-12T16:33:53;7.05;;;4.60;;
52724;SDS011;38621;52.830;6.914;2022-11-12T16:36:19;6.32;;;5.00;;
52724;SDS011;38621;52.830;6.914;2022-11-12T16:38:45;6.93;;;5.18;;
52724;SDS011;38621;52.830;6.914;2022-11-12T16:41:11;6.10;;;5.25;;
52724;SDS011;38621;52.830;6.914;2022-11-12T16:43:38;7.47;;;5.13;;
52724;SDS011;38621;52.830;6.914;2022-11-12T16:46:14;8.00;;;5.40;;
52724;SDS011;38621;52.830;6.914;2022-11-12T16:48:47;7.53;;;5.43;;
52724;SDS011;38621;52.830;6.914;2022-11-12T16:51:14;8.80;;;7.43;;
52724;SDS011;38621;52.830;6.914;2022-11-12T16:53:41;7.43;;;6.10;;
52724;SDS011;38621;52.830;6.914;2022-11-12T16:56:15;10.20;;;6.45;;
52724;SDS011;38621;52.830;6.914;2022-11-12T16:58:43;9.03;;;6.13;;
52724;SDS011;38621;52.830;6.914;2022-11-12T17:01:22;8.48;;;6.65;;
52724;SDS011;38621;52.830;6.914;2022-11-12T17:03:50;9.25;;;7.25;;
52724;SDS011;38621;52.830;6.914;2022-11-12T17:06:16;7.88;;;6.93;;
52724;SDS011;38621;52.830;6.914;2022-11-12T17:08:42;8.02;;;6.78;;
52724;SDS011;38621;52.830;6.914;2022-11-12T17:11:10;10.52;;;8.60;;
52724;SDS011;38621;52.830;6.914;2022-11-12T17:13:39;9.65;;;6.03;;
52724;SDS011;38621;52.830;6.914;2022-11-12T17:16:05;9.18;;;6.85;;
52724;SDS011;38621;52.830;6.914;2022-11-12T17:18:31;8.55;;;6.20;;
52724;SDS011;38621;52.830;6.914;2022-11-12T17:21:05;7.90;;;5.63;;
52724;SDS011;38621;52.830;6.914;2022-11-12T17:23:38;8.45;;;6.15;;
52724;SDS011;38621;52.830;6.914;2022-11-12T17:26:05;8.68;;;6.07;;
52724;SDS011;38621;52.830;6.914;2022-11-12T17:28:34;8.60;;;5.82;;
52724;SDS011;38621;52.830;6.914;2022-11-12T17:31:03;7.80;;;5.63;;
52724;SDS011;38621;52.830;6.914;2022-11-12T17:33:38;8.68;;;6.60;;
52724;SDS011;38621;52.830;6.914;2022-11-12T17:36:09;7.05;;;5.80;;
52724;SDS011;38621;52.830;6.914;2022-11-12T17:38:36;8.07;;;5.80;;
52724;SDS011;38621;52.830;6.914;2022-11-12T17:41:02;7.55;;;5.57;;
52724;SDS011;38621;52.830;6.914;2022-11-12T17:43:29;7.75;;;5.22;;
52724;SDS011;38621;52.830;6.914;2022-11-12T17:45:55;8.50;;;5.55;;
52724;SDS011;38621;52.830;6.914;2022-11-12T17:48:21;9.68;;;6.00;;